sensor_id;sensor_type;location;lat;lon;timestamp;P1;durP1;ratioP1;P2;durP2;ratioP2
25870;SDS011;13689;48.590;7.752;2024-01-15T00:00:38;42.53;;;11.27;;
25870;SDS011;13689;48.590;7.752;2024-01-15T00:03:04;63.30;;;15.27;;
25870;SDS011;13689;48.590;7.752;2024-01-15T00:05:30;60.47;;;16.90;;
25870;SDS011;13689;48.590;7.752;2024-01-15T00:07:55;61.22;;;16.02;;
25870;SDS011;13689;48.590;7.752;2024-01-15T00:10:21;63.67;;;16.17;;
25870;SDS011;13689;48.590;7.752;2024-01-15T00:12:47;63.42;;;15.85;;
25870;SDS011;13689;48.590;7.752;2024-01-15T00:15:12;56.70;;;15.65;;
25870;SDS011;13689;48.590;7.752;2024-01-15T00:17:38;63.75;;;17.00;;
25870;SDS011;13689;48.590;7.752;2024-01-15T00:20:04;59.05;;;16.08;;
25870;SDS011;13689;48.590;7.752;2024-01-15T00:22:30;71.35;;;17.85;;
25870;SDS011;13689;48.590;7.752;2024-01-15T00:24:56;63.53;;;16.05;;
25870;SDS011;13689;48.590;7.752;2024-01-15T00:27:22;55.22;;;15.80;;
25870;SDS011;13689;48.590;7.752;2024-01-15T00:29:48;64.80;;;16.42;;
25870;SDS011;13689;48.590;7.752;2024-01-15T00:32:15;62.28;;;17.00;;
25870;SDS011;13689;48.590;7.752;2024-01-15T00:34:41;68.07;;;16.35;;
25870;SDS011;13689;48.590;7.752;2024-01-15T00:37:07;61.75;;;16.15;;
25870;SDS011;13689;48.590;7.752;2024-01-15T00:39:32;66.18;;;16.55;;
25870;SDS011;13689;48.590;7.752;2024-01-15T00:41:58;64.55;;;17.55;;
25870;SDS011;13689;48.590;7.752;2024-01-15T00:44:24;64.70;;;18.27;;
25870;SDS011;13689;48.590;7.752;2024-01-15T00:46:49;75.03;;;17.55;;
25870;SDS011;13689;48.590;7.752;2024-01-15T00:49:15;57.58;;;16.17;;
25870;SDS011;13689;48.590;7.752;2024-01-15T00:51:41;65.28;;;17.17;;
25870;SDS011;13689;48.590;7.752;2024-01-15T00:54:07;66.80;;;17.30;;
25870;SDS011;13689;48.590;7.752;2024-01-15T00:56:32;66.63;;;17.17;;
25870;SDS011;13689;48.590;7.752;2024-01-15T00:58:58;62.08;;;17.55;;
25870;SDS011;13689;48.590;7.752;2024-01-15T01:01:23;64.88;;;19.25;;
25870;SDS011;13689;48.590;7.752;2024-01-15T01:03:49;70.38;;;18.23;;
25870;SDS011;13689;48.590;7.752;2024-01-15T01:06:14;55.97;;;16.98;;
25870;SDS011;13689;48.590;7.752;2024-01-15T01:08:40;63.35;;;18.33;;
25870;SDS011;13689;48.590;7.752;2024-01-15T01:11:06;68.68;;;17.60;;
25870;SDS011;13689;48.590;7.752;2024-01-15T01:13:32;67.22;;;18.77;;
25870;SDS011;13689;48.590;7.752;2024-01-15T01:15:57;62.03;;;16.83;;
25870;SDS011;13689;48.590;7.752;2024-01-15T01:18:23;66.07;;;18.45;;
25870;SDS011;13689;48.590;7.752;2024-01-15T01:20:49;59.25;;;17.98;;
25870;SDS011;13689;48.590;7.752;2024-01-15T01:23:14;65.88;;;18.70;;
25870;SDS011;13689;48.590;7.752;2024-01-15T01:25:40;79.32;;;20.35;;
25870;SDS011;13689;48.590;7.752;2024-01-15T01:28:06;62.85;;;17.38;;
25870;SDS011;13689;48.590;7.752;2024-01-15T01:30:31;70.07;;;19.30;;
25870;SDS011;13689;48.590;7.752;2024-01-15T01:32:57;66.43;;;18.33;;
25870;SDS011;13689;48.590;7.752;2024-01-15T01:35:22;68.40;;;18.33;;
25870;SDS011;13689;48.590;7.752;2024-01-15T01:37:48;65.97;;;17.95;;
25870;SDS011;13689;48.590;7.752;2024-01-15T01:40:14;62.35;;;18.58;;
25870;SDS011;13689;48.590;7.752;2024-01-15T01:42:39;65.82;;;19.20;;
25870;SDS011;13689;48.590;7.752;2024-01-15T01:45:05;73.30;;;19.17;;
25870;SDS011;13689;48.590;7.752;2024-01-15T01:47:31;64.53;;;18.42;;
25870;SDS011;13689;48.590;7.752;2024-01-15T01:49:57;68.28;;;19.42;;
25870;SDS011;13689;48.590;7.752;2024-01-15T01:52:23;71.80;;;18.60;;
25870;SDS011;13689;48.590;7.752;2024-01-15T01:54:49;59.90;;;18.10;;
25870;SDS011;13689;48.590;7.752;2024-01-15T01:57:15;69.25;;;18.27;;
25870;SDS011;13689;48.590;7.752;2024-01-15T01:59:42;56.40;;;13.10;;
25870;SDS011;13689;48.590;7.752;2024-01-15T02:02:09;62.70;;;16.88;;
25870;SDS011;13689;48.590;7.752;2024-01-15T02:04:35;61.45;;;17.85;;
25870;SDS011;13689;48.590;7.752;2024-01-15T02:07:01;57.50;;;17.13;;
25870;SDS011;13689;48.590;7.752;2024-01-15T02:09:27;77.68;;;18.83;;
25870;SDS011;13689;48.590;7.752;2024-01-15T02:11:53;68.60;;;17.88;;
25870;SDS011;13689;48.590;7.752;2024-01-15T02:14:19;65.57;;;17.90;;
25870;SDS011;13689;48.590;7.752;2024-01-15T02:16:44;63.53;;;17.23;;
25870;SDS011;13689;48.590;7.752;2024-01-15T02:19:16;55.15;;;15.77;;
25870;SDS011;13689;48.590;7.752;2024-01-15T02:21:42;60.03;;;17.52;;
25870;SDS011;13689;48.590;7.752;2024-01-15T02:24:08;65.32;;;17.50;;
25870;SDS011;13689;48.590;7.752;2024-01-15T02:26:34;68.63;;;17.42;;
25870;SDS011;13689;48.590;7.752;2024-01-15T02:29:01;61.90;;;18.42;;
25870;SDS011;13689;48.590;7.752;2024-01-15T02:31:27;73.75;;;17.50;;
25870;SDS011;13689;48.590;7.752;2024-01-15T02:33:52;73.70;;;18.75;;
25870;SDS011;13689;48.590;7.752;2024-01-15T02:36:18;63.83;;;17.40;;
25870;SDS011;13689;48.590;7.752;2024-01-15T02:38:44;67.82;;;18.10;;
25870;SDS011;13689;48.590;7.752;2024-01-15T02:41:09;65.30;;;17.80;;
25870;SDS011;13689;48.590;7.752;2024-01-15T02:43:35;74.43;;;17.20;;
25870;SDS011;13689;48.590;7.752;2024-01-15T02:46:00;57.03;;;15.88;;
25870;SDS011;13689;48.590;7.752;2024-01-15T02:48:26;59.40;;;16.60;;
25870;SDS011;13689;48.590;7.752;2024-01-15T02:50:51;61.75;;;15.98;;
25870;SDS011;13689;48.590;7.752;2024-01-15T02:53:17;53.97;;;15.27;;
25870;SDS011;13689;48.590;7.752;2024-01-15T02:55:42;54.10;;;14.45;;
25870;SDS011;13689;48.590;7.752;2024-01-15T02:58:08;56.50;;;14.23;;
25870;SDS011;13689;48.590;7.752;2024-01-15T03:00:34;56.00;;;15.00;;
25870;SDS011;13689;48.590;7.752;2024-01-15T03:02:59;57.72;;;15.75;;
25870;SDS011;13689;48.590;7.752;2024-01-15T03:05:25;65.18;;;17.48;;
25870;SDS011;13689;48.590;7.752;2024-01-15T03:07:50;62.13;;;17.63;;
25870;SDS011;13689;48.590;7.752;2024-01-15T03:10:16;62.95;;;17.35;;
25870;SDS011;13689;48.590;7.752;2024-01-15T03:12:42;56.72;;;15.20;;
25870;SDS011;13689;48.590;7.752;2024-01-15T03:15:07;65.03;;;19.20;;
25870;SDS011;13689;48.590;7.752;2024-01-15T03:17:33;64.05;;;16.25;;
25870;SDS011;13689;48.590;7.752;2024-01-15T03:19:58;63.88;;;16.73;;
25870;SDS011;13689;48.590;7.752;2024-01-15T03:22:25;55.58;;;15.68;;
25870;SDS011;13689;48.590;7.752;2024-01-15T03:24:50;61.47;;;18.20;;
25870;SDS011;13689;48.590;7.752;2024-01-15T03:27:17;53.33;;;15.23;;
25870;SDS011;13689;48.590;7.752;2024-01-15T03:29:43;63.70;;;18.17;;
25870;SDS011;13689;48.590;7.752;2024-01-15T03:32:08;69.28;;;17.23;;
25870;SDS011;13689;48.590;7.752;2024-01-15T03:34:34;64.47;;;16.98;;
25870;SDS011;13689;48.590;7.752;2024-01-15T03:36:59;61.22;;;17.63;;
25870;SDS011;13689;48.590;7.752;2024-01-15T03:39:25;67.30;;;16.35;;
25870;SDS011;13689;48.590;7.752;2024-01-15T03:41:51;61.67;;;16.35;;
25870;SDS011;13689;48.590;7.752;2024-01-15T03:44:16;68.57;;;16.15;;
25870;SDS011;13689;48.590;7.752;2024-01-15T03:46:42;60.55;;;15.25;;
25870;SDS011;13689;48.590;7.752;2024-01-15T03:49:07;55.42;;;16.05;;
25870;SDS011;13689;48.590;7.752;2024-01-15T03:51:33;54.22;;;15.50;;
25870;SDS011;13689;48.590;7.752;2024-01-15T03:53:59;49.22;;;15.30;;
25870;SDS011;13689;48.590;7.752;2024-01-15T03:56:24;50.50;;;14.65;;
25870;SDS011;13689;48.590;7.752;2024-01-15T03:58:50;42.00;;;13.38;;
25870;SDS011;13689;48.590;7.752;2024-01-15T04:01:15;45.97;;;13.65;;
25870;SDS011;13689;48.590;7.752;2024-01-15T04:03:44;50.80;;;15.00;;
25870;SDS011;13689;48.590;7.752;2024-01-15T04:06:09;44.80;;;13.32;;
25870;SDS011;13689;48.590;7.752;2024-01-15T04:08:35;54.70;;;16.05;;
25870;SDS011;13689;48.590;7.752;2024-01-15T04:11:00;44.42;;;14.13;;
25870;SDS011;13689;48.590;7.752;2024-01-15T04:13:26;42.33;;;13.70;;
25870;SDS011;13689;48.590;7.752;2024-01-15T04:15:52;40.92;;;12.73;;
25870;SDS011;13689;48.590;7.752;2024-01-15T04:18:18;45.78;;;14.40;;
25870;SDS011;13689;48.590;7.752;2024-01-15T04:20:43;44.90;;;15.75;;
25870;SDS011;13689;48.590;7.752;2024-01-15T04:23:09;47.10;;;14.18;;
25870;SDS011;13689;48.590;7.752;2024-01-15T04:25:35;47.38;;;14.15;;
25870;SDS011;13689;48.590;7.752;2024-01-15T04:28:01;49.10;;;15.00;;
25870;SDS011;13689;48.590;7.752;2024-01-15T04:30:26;50.58;;;14.23;;
25870;SDS011;13689;48.590;7.752;2024-01-15T04:32:52;49.03;;;14.85;;
25870;SDS011;13689;48.590;7.752;2024-01-15T04:35:17;53.58;;;15.43;;
25870;SDS011;13689;48.590;7.752;2024-01-15T04:37:43;49.83;;;17.23;;
25870;SDS011;13689;48.590;7.752;2024-01-15T04:40:09;50.05;;;15.50;;
25870;SDS011;13689;48.590;7.752;2024-01-15T04:42:35;50.75;;;16.20;;
25870;SDS011;13689;48.590;7.752;2024-01-15T04:45:00;52.00;;;15.27;;
25870;SDS011;13689;48.590;7.752;2024-01-15T04:47:26;50.15;;;17.05;;
25870;SDS011;13689;48.590;7.752;2024-01-15T04:49:51;48.10;;;14.68;;
25870;SDS011;13689;48.590;7.752;2024-01-15T04:52:17;61.38;;;16.60;;
25870;SDS011;13689;48.590;7.752;2024-01-15T04:54:43;51.55;;;15.57;;
25870;SDS011;13689;48.590;7.752;2024-01-15T04:57:08;43.95;;;14.38;;
25870;SDS011;13689;48.590;7.752;2024-01-15T04:59:34;51.22;;;16.88;;
25870;SDS011;13689;48.590;7.752;2024-01-15T05:01:59;53.13;;;16.48;;
25870;SDS011;13689;48.590;7.752;2024-01-15T05:04:25;47.63;;;15.15;;
25870;SDS011;13689;48.590;7.752;2024-01-15T05:06:51;48.65;;;15.05;;
25870;SDS011;13689;48.590;7.752;2024-01-15T05:09:16;48.83;;;15.63;;
25870;SDS011;13689;48.590;7.752;2024-01-15T05:11:43;46.40;;;17.73;;
25870;SDS011;13689;48.590;7.752;2024-01-15T05:14:08;50.45;;;15.38;;
25870;SDS011;13689;48.590;7.752;2024-01-15T05:16:34;51.40;;;17.27;;
25870;SDS011;13689;48.590;7.752;2024-01-15T05:19:00;55.00;;;15.15;;
25870;SDS011;13689;48.590;7.752;2024-01-15T05:21:25;57.03;;;16.20;;
25870;SDS011;13689;48.590;7.752;2024-01-15T05:23:51;49.67;;;15.13;;
25870;SDS011;13689;48.590;7.752;2024-01-15T05:26:16;53.10;;;15.70;;
25870;SDS011;13689;48.590;7.752;2024-01-15T05:28:42;57.58;;;16.35;;
25870;SDS011;13689;48.590;7.752;2024-01-15T05:31:08;46.72;;;15.10;;
25870;SDS011;13689;48.590;7.752;2024-01-15T05:33:34;48.75;;;15.05;;
25870;SDS011;13689;48.590;7.752;2024-01-15T05:36:00;50.70;;;16.20;;
25870;SDS011;13689;48.590;7.752;2024-01-15T05:38:25;66.32;;;18.15;;
25870;SDS011;13689;48.590;7.752;2024-01-15T05:40:52;47.22;;;15.18;;
25870;SDS011;13689;48.590;7.752;2024-01-15T05:43:18;47.35;;;15.00;;
25870;SDS011;13689;48.590;7.752;2024-01-15T05:45:44;52.15;;;15.82;;
25870;SDS011;13689;48.590;7.752;2024-01-15T05:48:12;42.20;;;14.60;;
25870;SDS011;13689;48.590;7.752;2024-01-15T05:50:38;51.28;;;16.52;;
25870;SDS011;13689;48.590;7.752;2024-01-15T05:53:04;51.70;;;15.73;;
25870;SDS011;13689;48.590;7.752;2024-01-15T05:55:29;50.85;;;15.13;;
25870;SDS011;13689;48.590;7.752;2024-01-15T05:57:55;52.20;;;15.98;;
25870;SDS011;13689;48.590;7.752;2024-01-15T06:00:21;48.28;;;15.15;;
25870;SDS011;13689;48.590;7.752;2024-01-15T06:02:47;51.53;;;16.05;;
25870;SDS011;13689;48.590;7.752;2024-01-15T06:05:12;49.55;;;16.15;;
25870;SDS011;13689;48.590;7.752;2024-01-15T06:07:38;54.60;;;16.83;;
25870;SDS011;13689;48.590;7.752;2024-01-15T06:10:04;47.78;;;13.95;;
25870;SDS011;13689;48.590;7.752;2024-01-15T06:12:30;48.22;;;14.23;;
25870;SDS011;13689;48.590;7.752;2024-01-15T06:14:57;53.72;;;15.43;;
25870;SDS011;13689;48.590;7.752;2024-01-15T06:17:22;48.60;;;14.80;;
25870;SDS011;13689;48.590;7.752;2024-01-15T06:19:48;47.95;;;15.73;;
25870;SDS011;13689;48.590;7.752;2024-01-15T06:22:13;44.60;;;13.65;;
25870;SDS011;13689;48.590;7.752;2024-01-15T06:24:39;43.55;;;13.00;;
25870;SDS011;13689;48.590;7.752;2024-01-15T06:27:05;46.00;;;14.70;;
25870;SDS011;13689;48.590;7.752;2024-01-15T06:29:30;43.38;;;14.70;;
25870;SDS011;13689;48.590;7.752;2024-01-15T06:31:56;41.00;;;14.27;;
25870;SDS011;13689;48.590;7.752;2024-01-15T06:34:22;45.75;;;13.85;;
25870;SDS011;13689;48.590;7.752;2024-01-15T06:36:48;41.90;;;13.52;;
25870;SDS011;13689;48.590;7.752;2024-01-15T06:39:13;39.45;;;12.63;;
25870;SDS011;13689;48.590;7.752;2024-01-15T06:41:39;35.85;;;12.07;;
25870;SDS011;13689;48.590;7.752;2024-01-15T06:44:09;45.17;;;13.70;;
25870;SDS011;13689;48.590;7.752;2024-01-15T06:46:36;41.08;;;13.02;;
25870;SDS011;13689;48.590;7.752;2024-01-15T06:49:01;41.80;;;14.25;;
25870;SDS011;13689;48.590;7.752;2024-01-15T06:51:27;39.88;;;12.82;;
25870;SDS011;13689;48.590;7.752;2024-01-15T06:53:54;45.03;;;13.07;;
25870;SDS011;13689;48.590;7.752;2024-01-15T06:56:19;43.80;;;12.63;;
25870;SDS011;13689;48.590;7.752;2024-01-15T06:58:45;39.25;;;12.15;;
25870;SDS011;13689;48.590;7.752;2024-01-15T07:01:10;39.88;;;12.65;;
25870;SDS011;13689;48.590;7.752;2024-01-15T07:03:36;44.72;;;13.13;;
25870;SDS011;13689;48.590;7.752;2024-01-15T07:06:03;30.83;;;10.77;;
25870;SDS011;13689;48.590;7.752;2024-01-15T07:08:28;39.00;;;12.80;;
25870;SDS011;13689;48.590;7.752;2024-01-15T07:10:55;38.42;;;12.95;;
25870;SDS011;13689;48.590;7.752;2024-01-15T07:13:20;37.55;;;11.73;;
25870;SDS011;13689;48.590;7.752;2024-01-15T07:15:46;40.70;;;12.20;;
25870;SDS011;13689;48.590;7.752;2024-01-15T07:18:11;44.85;;;13.35;;
25870;SDS011;13689;48.590;7.752;2024-01-15T07:20:37;45.80;;;13.05;;
25870;SDS011;13689;48.590;7.752;2024-01-15T07:23:03;43.92;;;13.85;;
25870;SDS011;13689;48.590;7.752;2024-01-15T07:25:29;35.42;;;11.98;;
25870;SDS011;13689;48.590;7.752;2024-01-15T07:27:54;39.50;;;12.95;;
25870;SDS011;13689;48.590;7.752;2024-01-15T07:30:20;47.45;;;14.45;;
25870;SDS011;13689;48.590;7.752;2024-01-15T07:32:47;47.35;;;13.95;;
25870;SDS011;13689;48.590;7.752;2024-01-15T07:35:13;49.58;;;13.98;;
25870;SDS011;13689;48.590;7.752;2024-01-15T07:37:40;41.72;;;12.95;;
25870;SDS011;13689;48.590;7.752;2024-01-15T07:40:06;36.00;;;11.68;;
25870;SDS011;13689;48.590;7.752;2024-01-15T07:42:33;45.33;;;13.30;;
25870;SDS011;13689;48.590;7.752;2024-01-15T07:44:59;40.53;;;12.10;;
25870;SDS011;13689;48.590;7.752;2024-01-15T07:47:25;48.30;;;14.52;;
25870;SDS011;13689;48.590;7.752;2024-01-15T07:49:52;37.20;;;13.60;;
25870;SDS011;13689;48.590;7.752;2024-01-15T07:52:18;42.30;;;12.90;;
25870;SDS011;13689;48.590;7.752;2024-01-15T07:54:43;37.03;;;12.93;;
25870;SDS011;13689;48.590;7.752;2024-01-15T07:57:09;49.30;;;15.63;;
25870;SDS011;13689;48.590;7.752;2024-01-15T07:59:35;43.50;;;14.95;;
25870;SDS011;13689;48.590;7.752;2024-01-15T08:02:00;52.83;;;16.67;;
25870;SDS011;13689;48.590;7.752;2024-01-15T08:04:28;45.55;;;14.43;;
25870;SDS011;13689;48.590;7.752;2024-01-15T08:06:53;49.60;;;15.32;;
25870;SDS011;13689;48.590;7.752;2024-01-15T08:09:19;46.58;;;14.35;;
25870;SDS011;13689;48.590;7.752;2024-01-15T08:11:45;52.08;;;16.08;;
25870;SDS011;13689;48.590;7.752;2024-01-15T08:14:11;54.13;;;14.57;;
25870;SDS011;13689;48.590;7.752;2024-01-15T08:16:37;48.45;;;14.88;;
25870;SDS011;13689;48.590;7.752;2024-01-15T08:19:03;44.20;;;14.10;;
25870;SDS011;13689;48.590;7.752;2024-01-15T08:21:29;49.63;;;14.65;;
25870;SDS011;13689;48.590;7.752;2024-01-15T08:23:58;59.17;;;16.67;;
25870;SDS011;13689;48.590;7.752;2024-01-15T08:26:24;48.40;;;16.25;;
25870;SDS011;13689;48.590;7.752;2024-01-15T08:28:50;55.00;;;16.52;;
25870;SDS011;13689;48.590;7.752;2024-01-15T08:31:16;59.08;;;16.90;;
25870;SDS011;13689;48.590;7.752;2024-01-15T08:33:42;56.75;;;17.30;;
25870;SDS011;13689;48.590;7.752;2024-01-15T08:36:09;56.08;;;15.73;;
25870;SDS011;13689;48.590;7.752;2024-01-15T08:38:34;54.47;;;16.80;;
25870;SDS011;13689;48.590;7.752;2024-01-15T08:41:00;63.40;;;17.85;;
25870;SDS011;13689;48.590;7.752;2024-01-15T08:43:26;64.90;;;17.00;;
25870;SDS011;13689;48.590;7.752;2024-01-15T08:45:52;63.80;;;17.38;;
25870;SDS011;13689;48.590;7.752;2024-01-15T08:48:18;48.58;;;14.75;;
25870;SDS011;13689;48.590;7.752;2024-01-15T08:50:44;56.95;;;17.58;;
25870;SDS011;13689;48.590;7.752;2024-01-15T08:53:11;53.45;;;15.73;;
25870;SDS011;13689;48.590;7.752;2024-01-15T08:55:37;55.58;;;14.98;;
25870;SDS011;13689;48.590;7.752;2024-01-15T08:58:02;59.97;;;17.67;;
25870;SDS011;13689;48.590;7.752;2024-01-15T09:00:28;63.03;;;17.00;;
25870;SDS011;13689;48.590;7.752;2024-01-15T09:02:55;49.63;;;15.32;;
25870;SDS011;13689;48.590;7.752;2024-01-15T09:05:21;59.30;;;15.48;;
25870;SDS011;13689;48.590;7.752;2024-01-15T09:07:47;59.28;;;16.15;;
25870;SDS011;13689;48.590;7.752;2024-01-15T09:10:13;59.95;;;16.27;;
25870;SDS011;13689;48.590;7.752;2024-01-15T09:12:39;52.67;;;15.10;;
25870;SDS011;13689;48.590;7.752;2024-01-15T09:15:04;60.13;;;15.35;;
25870;SDS011;13689;48.590;7.752;2024-01-15T09:17:34;53.30;;;17.02;;
25870;SDS011;13689;48.590;7.752;2024-01-15T09:19:59;56.65;;;17.00;;
25870;SDS011;13689;48.590;7.752;2024-01-15T09:22:25;52.78;;;16.08;;
25870;SDS011;13689;48.590;7.752;2024-01-15T09:24:51;58.00;;;14.88;;
25870;SDS011;13689;48.590;7.752;2024-01-15T09:27:17;57.97;;;15.63;;
25870;SDS011;13689;48.590;7.752;2024-01-15T09:29:43;45.40;;;14.40;;
25870;SDS011;13689;48.590;7.752;2024-01-15T09:32:10;51.13;;;14.60;;
25870;SDS011;13689;48.590;7.752;2024-01-15T09:34:37;45.88;;;14.75;;
25870;SDS011;13689;48.590;7.752;2024-01-15T09:37:03;45.80;;;13.77;;
25870;SDS011;13689;48.590;7.752;2024-01-15T09:39:29;55.55;;;15.50;;
25870;SDS011;13689;48.590;7.752;2024-01-15T09:41:56;50.47;;;14.52;;
25870;SDS011;13689;48.590;7.752;2024-01-15T09:44:22;45.28;;;13.98;;
25870;SDS011;13689;48.590;7.752;2024-01-15T09:46:48;50.70;;;14.10;;
25870;SDS011;13689;48.590;7.752;2024-01-15T09:49:16;33.93;;;10.50;;
25870;SDS011;13689;48.590;7.752;2024-01-15T09:51:42;44.80;;;14.40;;
25870;SDS011;13689;48.590;7.752;2024-01-15T09:54:08;42.67;;;14.02;;
25870;SDS011;13689;48.590;7.752;2024-01-15T09:56:34;45.90;;;14.05;;
25870;SDS011;13689;48.590;7.752;2024-01-15T09:59:00;40.45;;;13.10;;
25870;SDS011;13689;48.590;7.752;2024-01-15T10:01:26;43.63;;;13.00;;
25870;SDS011;13689;48.590;7.752;2024-01-15T10:03:52;47.25;;;16.30;;
25870;SDS011;13689;48.590;7.752;2024-01-15T10:06:19;33.53;;;11.00;;
25870;SDS011;13689;48.590;7.752;2024-01-15T10:08:50;38.55;;;11.13;;
25870;SDS011;13689;48.590;7.752;2024-01-15T10:11:16;29.42;;;9.73;;
25870;SDS011;13689;48.590;7.752;2024-01-15T10:13:49;35.55;;;10.90;;
25870;SDS011;13689;48.590;7.752;2024-01-15T10:16:21;29.83;;;9.02;;
25870;SDS011;13689;48.590;7.752;2024-01-15T10:18:47;29.92;;;9.10;;
25870;SDS011;13689;48.590;7.752;2024-01-15T10:21:13;23.55;;;7.80;;
25870;SDS011;13689;48.590;7.752;2024-01-15T10:23:39;28.33;;;7.72;;
25870;SDS011;13689;48.590;7.752;2024-01-15T10:26:05;19.00;;;6.50;;
25870;SDS011;13689;48.590;7.752;2024-01-15T10:28:30;18.77;;;5.78;;
25870;SDS011;13689;48.590;7.752;2024-01-15T10:30:57;11.70;;;5.13;;
25870;SDS011;13689;48.590;7.752;2024-01-15T10:33:24;9.80;;;3.77;;
25870;SDS011;13689;48.590;7.752;2024-01-15T10:35:53;12.90;;;4.32;;
25870;SDS011;13689;48.590;7.752;2024-01-15T10:38:20;13.30;;;3.40;;
25870;SDS011;13689;48.590;7.752;2024-01-15T10:40:53;7.95;;;2.97;;
25870;SDS011;13689;48.590;7.752;2024-01-15T10:43:19;7.28;;;3.53;;
25870;SDS011;13689;48.590;7.752;2024-01-15T10:45:46;11.05;;;3.22;;
25870;SDS011;13689;48.590;7.752;2024-01-15T10:48:18;5.60;;;2.42;;
25870;SDS011;13689;48.590;7.752;2024-01-15T10:50:45;6.90;;;3.80;;
25870;SDS011;13689;48.590;7.752;2024-01-15T10:53:15;6.53;;;3.35;;
25870;SDS011;13689;48.590;7.752;2024-01-15T10:55:42;7.75;;;3.05;;
25870;SDS011;13689;48.590;7.752;2024-01-15T10:58:08;8.13;;;3.53;;
25870;SDS011;13689;48.590;7.752;2024-01-15T11:00:34;8.35;;;3.25;;
25870;SDS011;13689;48.590;7.752;2024-01-15T11:03:02;5.53;;;3.30;;
25870;SDS011;13689;48.590;7.752;2024-01-15T11:05:33;8.88;;;3.42;;
25870;SDS011;13689;48.590;7.752;2024-01-15T11:08:04;8.40;;;3.33;;
25870;SDS011;13689;48.590;7.752;2024-01-15T11:10:42;9.13;;;3.70;;
25870;SDS011;13689;48.590;7.752;2024-01-15T11:15:56;8.48;;;3.10;;
25870;SDS011;13689;48.590;7.752;2024-01-15T11:18:23;6.55;;;2.92;;
25870;SDS011;13689;48.590;7.752;2024-01-15T11:23:43;6.22;;;2.80;;
25870;SDS011;13689;48.590;7.752;2024-01-15T11:29:07;7.90;;;3.63;;
25870;SDS011;13689;48.590;7.752;2024-01-15T11:34:06;4.07;;;1.98;;
25870;SDS011;13689;48.590;7.752;2024-01-15T11:37:15;7.37;;;2.23;;
25870;SDS011;13689;48.590;7.752;2024-01-15T11:41:56;8.00;;;3.22;;
25870;SDS011;13689;48.590;7.752;2024-01-15T11:44:23;8.05;;;3.70;;
25870;SDS011;13689;48.590;7.752;2024-01-15T11:52:02;12.38;;;4.05;;
25870;SDS011;13689;48.590;7.752;2024-01-15T11:54:30;9.30;;;3.55;;
25870;SDS011;13689;48.590;7.752;2024-01-15T11:57:03;9.25;;;3.78;;
25870;SDS011;13689;48.590;7.752;2024-01-15T11:59:34;7.75;;;3.72;;
25870;SDS011;13689;48.590;7.752;2024-01-15T12:02:01;6.95;;;3.03;;
25870;SDS011;13689;48.590;7.752;2024-01-15T12:04:28;14.63;;;4.10;;
25870;SDS011;13689;48.590;7.752;2024-01-15T12:06:53;8.80;;;3.67;;
25870;SDS011;13689;48.590;7.752;2024-01-15T12:09:19;10.25;;;3.80;;
25870;SDS011;13689;48.590;7.752;2024-01-15T12:11:46;6.65;;;3.55;;
25870;SDS011;13689;48.590;7.752;2024-01-15T12:14:20;7.00;;;2.90;;
25870;SDS011;13689;48.590;7.752;2024-01-15T12:16:46;6.53;;;3.05;;
25870;SDS011;13689;48.590;7.752;2024-01-15T12:19:13;9.10;;;4.30;;
25870;SDS011;13689;48.590;7.752;2024-01-15T12:21:40;12.55;;;4.20;;
25870;SDS011;13689;48.590;7.752;2024-01-15T12:24:09;9.73;;;3.80;;
25870;SDS011;13689;48.590;7.752;2024-01-15T12:26:35;8.38;;;3.97;;
25870;SDS011;13689;48.590;7.752;2024-01-15T12:29:01;10.88;;;3.97;;
25870;SDS011;13689;48.590;7.752;2024-01-15T12:31:27;15.27;;;3.88;;
25870;SDS011;13689;48.590;7.752;2024-01-15T12:33:55;8.97;;;3.97;;
25870;SDS011;13689;48.590;7.752;2024-01-15T12:36:21;10.00;;;3.90;;
25870;SDS011;13689;48.590;7.752;2024-01-15T12:38:47;10.80;;;3.88;;
25870;SDS011;13689;48.590;7.752;2024-01-15T12:41:12;7.55;;;3.85;;
25870;SDS011;13689;48.590;7.752;2024-01-15T12:43:38;11.85;;;4.90;;
25870;SDS011;13689;48.590;7.752;2024-01-15T12:46:05;11.03;;;4.43;;
25870;SDS011;13689;48.590;7.752;2024-01-15T12:48:31;9.25;;;3.83;;
25870;SDS011;13689;48.590;7.752;2024-01-15T12:50:56;12.20;;;4.35;;
25870;SDS011;13689;48.590;7.752;2024-01-15T12:53:22;12.30;;;4.22;;
25870;SDS011;13689;48.590;7.752;2024-01-15T12:55:48;11.77;;;4.57;;
25870;SDS011;13689;48.590;7.752;2024-01-15T12:58:13;12.50;;;5.10;;
25870;SDS011;13689;48.590;7.752;2024-01-15T13:00:39;15.38;;;5.28;;
25870;SDS011;13689;48.590;7.752;2024-01-15T13:03:04;14.50;;;4.90;;
25870;SDS011;13689;48.590;7.752;2024-01-15T13:05:31;15.15;;;4.80;;
25870;SDS011;13689;48.590;7.752;2024-01-15T13:07:58;9.18;;;4.38;;
25870;SDS011;13689;48.590;7.752;2024-01-15T13:10:24;15.35;;;5.00;;
25870;SDS011;13689;48.590;7.752;2024-01-15T13:12:50;10.25;;;4.57;;
25870;SDS011;13689;48.590;7.752;2024-01-15T13:15:16;10.52;;;4.63;;
25870;SDS011;13689;48.590;7.752;2024-01-15T13:17:41;13.63;;;5.00;;
25870;SDS011;13689;48.590;7.752;2024-01-15T13:20:08;13.13;;;5.38;;
25870;SDS011;13689;48.590;7.752;2024-01-15T13:22:34;12.77;;;5.47;;
25870;SDS011;13689;48.590;7.752;2024-01-15T13:24:59;13.88;;;6.10;;
25870;SDS011;13689;48.590;7.752;2024-01-15T13:27:25;15.05;;;5.88;;
25870;SDS011;13689;48.590;7.752;2024-01-15T13:29:51;13.30;;;5.18;;
25870;SDS011;13689;48.590;7.752;2024-01-15T13:32:17;15.25;;;6.25;;
25870;SDS011;13689;48.590;7.752;2024-01-15T13:34:54;16.58;;;5.72;;
25870;SDS011;13689;48.590;7.752;2024-01-15T13:37:22;20.23;;;7.25;;
25870;SDS011;13689;48.590;7.752;2024-01-15T13:39:51;17.88;;;7.15;;
25870;SDS011;13689;48.590;7.752;2024-01-15T13:42:17;16.52;;;5.65;;
25870;SDS011;13689;48.590;7.752;2024-01-15T13:44:43;14.15;;;5.90;;
25870;SDS011;13689;48.590;7.752;2024-01-15T13:47:08;13.18;;;5.70;;
25870;SDS011;13689;48.590;7.752;2024-01-15T13:49:35;15.73;;;5.68;;
25870;SDS011;13689;48.590;7.752;2024-01-15T13:52:01;12.90;;;5.72;;
25870;SDS011;13689;48.590;7.752;2024-01-15T13:54:29;11.20;;;4.93;;
25870;SDS011;13689;48.590;7.752;2024-01-15T13:56:55;16.08;;;5.50;;
25870;SDS011;13689;48.590;7.752;2024-01-15T13:59:20;14.07;;;5.60;;
25870;SDS011;13689;48.590;7.752;2024-01-15T14:01:46;16.83;;;5.88;;
25870;SDS011;13689;48.590;7.752;2024-01-15T14:04:12;14.05;;;5.45;;
25870;SDS011;13689;48.590;7.752;2024-01-15T14:06:38;14.00;;;5.75;;
25870;SDS011;13689;48.590;7.752;2024-01-15T14:09:04;13.27;;;5.75;;
25870;SDS011;13689;48.590;7.752;2024-01-15T14:11:30;17.40;;;6.43;;
25870;SDS011;13689;48.590;7.752;2024-01-15T14:13:56;13.68;;;5.45;;
25870;SDS011;13689;48.590;7.752;2024-01-15T14:16:22;15.57;;;6.10;;
25870;SDS011;13689;48.590;7.752;2024-01-15T14:18:47;15.82;;;6.10;;
25870;SDS011;13689;48.590;7.752;2024-01-15T14:21:13;14.13;;;6.22;;
25870;SDS011;13689;48.590;7.752;2024-01-15T14:23:39;17.35;;;5.97;;
25870;SDS011;13689;48.590;7.752;2024-01-15T14:26:05;13.13;;;5.90;;
25870;SDS011;13689;48.590;7.752;2024-01-15T14:28:31;14.50;;;6.55;;
25870;SDS011;13689;48.590;7.752;2024-01-15T14:30:57;12.75;;;5.43;;
25870;SDS011;13689;48.590;7.752;2024-01-15T14:33:26;13.70;;;6.05;;
25870;SDS011;13689;48.590;7.752;2024-01-15T14:35:52;12.43;;;5.32;;
25870;SDS011;13689;48.590;7.752;2024-01-15T14:38:18;9.73;;;4.63;;